createdAt,value
2018-12-08T09:37:29.374Z,46.01
2018-12-08T09:39:57.679Z,50.51
2018-12-08T09:42:25.978Z,52.29
2018-12-08T09:44:54.233Z,53.09
2018-12-08T09:47:22.548Z,52.99
2018-12-08T09:49:50.737Z,54.30
2018-12-08T09:52:20.389Z,53.96
2018-12-08T09:54:48.659Z,53.58
2018-12-08T09:57:16.986Z,54.41
2018-12-08T09:59:45.425Z,54.13
2018-12-08T10:02:13.862Z,55.08
2018-12-08T10:04:42.082Z,54.42
2018-12-08T10:07:10.453Z,54.25
2018-12-08T10:09:38.787Z,53.72
2018-12-08T10:12:07.032Z,53.39
2018-12-08T10:14:35.317Z,53.42
2018-12-08T10:17:03.638Z,53.49
2018-12-08T10:19:32.795Z,52.89
2018-12-08T10:22:01.081Z,52.42
2018-12-08T10:24:29.918Z,52.77
2018-12-08T10:26:58.190Z,53.45
2018-12-08T10:29:26.496Z,53.06
2018-12-08T10:31:54.753Z,53.13
2018-12-08T10:34:23.023Z,53.22
2018-12-08T10:36:51.308Z,53.25
2018-12-08T10:39:19.572Z,53.08
2018-12-08T10:41:47.845Z,53.58
2018-12-08T10:44:16.107Z,53.58
2018-12-08T10:46:44.399Z,53.97
2018-12-08T10:49:12.730Z,53.29
2018-12-08T10:51:43.929Z,53.63
2018-12-08T10:54:12.242Z,53.44
2018-12-08T10:56:40.490Z,53.04
2018-12-08T10:59:08.822Z,52.16
2018-12-08T11:01:42.379Z,52.79
2018-12-08T11:04:10.689Z,52.14
2018-12-08T11:06:38.964Z,52.28
2018-12-08T11:09:07.773Z,52.15
2018-12-08T11:11:36.081Z,52.02
2018-12-08T11:14:04.499Z,51.73
2018-12-08T11:16:32.730Z,51.89
2018-12-08T11:19:01.050Z,51.82
2018-12-08T11:21:29.283Z,52.02
2018-12-08T11:23:57.534Z,52.05
2018-12-08T11:26:25.768Z,51.94
2018-12-08T11:28:54.160Z,51.92
2018-12-08T11:31:22.367Z,52.43
2018-12-08T11:33:50.642Z,53.04
2018-12-08T11:36:18.933Z,52.74
2018-12-08T11:38:47.253Z,53.34
2018-12-08T11:41:15.498Z,52.15
2018-12-08T11:43:43.704Z,51.99
2018-12-08T11:46:11.955Z,51.72
2018-12-08T11:48:40.199Z,51.49
2018-12-08T11:51:08.510Z,51.67
2018-12-08T11:53:36.746Z,51.43
2018-12-08T11:56:04.968Z,52.08
2018-12-08T11:58:33.197Z,51.37
2018-12-08T12:01:01.560Z,52.54
2018-12-08T12:03:29.850Z,51.56
2018-12-08T12:05:59.150Z,51.72
2018-12-08T12:08:27.460Z,51.78
2018-12-08T12:10:55.745Z,51.48
2018-12-08T12:13:24.114Z,51.53
2018-12-08T12:15:52.334Z,51.79
2018-12-08T12:18:20.994Z,51.06
2018-12-08T12:20:49.219Z,51.28
2018-12-08T12:23:17.527Z,51.22
2018-12-08T12:25:45.937Z,51.33
2018-12-08T12:28:14.277Z,50.86
2018-12-08T12:30:42.609Z,51.13
2018-12-08T12:33:10.861Z,51.44
2018-12-08T12:35:39.473Z,51.97
2018-12-08T12:38:08.013Z,51.66
2018-12-08T12:40:36.254Z,50.88
2018-12-08T12:43:04.997Z,52.00
2018-12-08T12:45:34.142Z,52.29
2018-12-08T12:48:06.399Z,51.74
2018-12-08T12:50:35.283Z,51.92
2018-12-08T12:53:03.747Z,51.89
2018-12-08T12:55:32.881Z,51.57
2018-12-08T12:58:01.473Z,52.43
2018-12-08T13:00:29.944Z,52.08
2018-12-08T13:02:58.306Z,52.12
2018-12-08T13:05:26.575Z,52.03
2018-12-08T13:07:54.862Z,52.01
2018-12-08T13:10:25.663Z,52.48
2018-12-08T13:12:54.258Z,52.49
2018-12-08T13:15:22.901Z,52.68
2018-12-08T13:17:51.181Z,53.32
2018-12-08T13:20:19.841Z,52.62
2018-12-08T13:22:48.198Z,53.17
2018-12-08T13:25:23.519Z,53.27
2018-12-08T13:27:52.983Z,53.56
2018-12-08T13:45:50.594Z,49.17
2018-12-08T13:48:20.474Z,51.50
2018-12-08T13:50:48.273Z,52.40
2018-12-08T13:53:16.118Z,52.94
2018-12-08T13:55:43.961Z,52.79
2018-12-08T13:58:11.515Z,52.65
2018-12-08T14:00:39.285Z,52.54
2018-12-08T14:03:06.823Z,53.50
2018-12-08T14:05:34.563Z,53.72
2018-12-08T14:08:02.787Z,52.24
2018-12-08T14:10:32.389Z,51.79
2018-12-08T14:13:00.664Z,52.54
2018-12-08T14:15:30.461Z,54.05
2018-12-08T14:17:58.704Z,54.15
2018-12-08T14:20:30.835Z,54.41
2018-12-08T14:22:59.349Z,54.49
2018-12-08T14:25:27.717Z,54.58
2018-12-08T14:27:57.118Z,55.51
2018-12-08T14:30:25.434Z,55.73
2018-12-08T14:32:54.836Z,56.31
2018-12-08T14:35:23.348Z,56.73
2018-12-08T14:37:54.103Z,57.16
2018-12-08T14:40:22.457Z,57.20
2018-12-08T14:42:52.249Z,57.81
2018-12-08T14:45:20.505Z,58.36
2018-12-08T14:47:48.832Z,58.85
2018-12-08T14:50:17.081Z,59.21
2018-12-08T14:52:45.402Z,59.82
2018-12-08T14:55:13.709Z,58.94
2018-12-08T14:57:41.958Z,59.52
2018-12-08T15:00:11.905Z,59.51
2018-12-08T15:02:40.157Z,59.83
2018-12-08T15:05:10.303Z,60.88
2018-12-08T15:07:38.583Z,62.69
2018-12-08T15:10:09.637Z,62.08
2018-12-08T15:12:37.886Z,63.20
2018-12-08T15:15:06.652Z,62.48
2018-12-08T15:17:35.490Z,62.34
2018-12-08T15:20:04.006Z,61.25
2018-12-08T15:22:32.280Z,61.95
2018-12-08T15:25:00.511Z,61.34
2018-12-08T15:27:30.732Z,61.62
2018-12-08T15:29:59.141Z,61.17
2018-12-08T15:32:27.407Z,60.60
2018-12-08T15:34:55.734Z,60.66
2018-12-08T15:37:23.957Z,60.76
2018-12-08T15:39:52.303Z,60.93
2018-12-08T15:42:20.512Z,60.47
2018-12-08T15:44:48.879Z,60.72
2018-12-08T15:47:18.331Z,61.50
2018-12-08T15:49:46.909Z,61.87
2018-12-08T15:52:15.144Z,62.29
2018-12-08T15:54:43.465Z,61.98
2018-12-08T15:57:11.747Z,62.99
2018-12-08T15:59:40.001Z,63.20
2018-12-08T16:02:08.242Z,63.85
2018-12-08T16:04:38.322Z,63.51
2018-12-08T16:07:06.642Z,63.72
2018-12-08T16:09:34.958Z,63.69
2018-12-08T16:12:03.242Z,63.96
2018-12-08T16:14:31.912Z,63.38
2018-12-08T16:17:00.171Z,63.60
2018-12-08T16:19:31.419Z,63.58
2018-12-08T16:22:00.217Z,63.08
2018-12-08T16:24:28.478Z,62.96
2018-12-08T16:26:56.811Z,62.46
2018-12-08T16:29:25.156Z,61.99
2018-12-08T16:31:53.442Z,62.51
2018-12-08T16:34:21.767Z,62.58
2018-12-08T16:36:50.071Z,62.27
2018-12-08T16:39:18.347Z,62.13
2018-12-08T16:41:46.698Z,62.28
2018-12-08T16:44:14.918Z,62.41
2018-12-08T16:46:43.243Z,62.17
2018-12-08T16:49:11.577Z,62.98
2018-12-08T16:51:40.439Z,62.78
2018-12-08T16:54:08.736Z,63.31
2018-12-08T16:56:37.578Z,63.79
2018-12-08T16:59:05.902Z,63.61
2018-12-08T17:01:34.277Z,63.77
2018-12-08T17:04:02.534Z,64.19
2018-12-08T17:06:32.475Z,64.23
2018-12-08T17:09:00.737Z,64.52
2018-12-08T17:11:29.814Z,64.81
2018-12-08T17:13:58.102Z,64.75
2018-12-08T17:16:26.442Z,65.82
2018-12-08T17:18:55.042Z,66.02
2018-12-08T17:21:23.306Z,66.29
2018-12-08T17:23:51.621Z,66.25
2018-12-08T17:26:19.897Z,66.06
2018-12-08T17:28:48.238Z,66.28
2018-12-08T17:31:16.530Z,66.39
2018-12-08T17:33:44.832Z,66.18
2018-12-08T17:36:13.098Z,66.37
2018-12-08T17:38:41.382Z,66.26
2018-12-08T17:41:09.621Z,66.28
2018-12-08T17:43:37.952Z,65.87
2018-12-08T17:46:06.183Z,65.93
2018-12-08T17:48:34.565Z,65.71
2018-12-08T17:51:02.824Z,65.15
2018-12-08T17:56:05.046Z,65.54
2018-12-08T17:58:33.280Z,65.09
2018-12-08T18:01:01.479Z,65.17
2018-12-08T18:03:29.899Z,65.36
2018-12-08T18:05:58.265Z,64.59
2018-12-08T18:08:26.595Z,63.97
2018-12-08T18:10:54.797Z,63.87
2018-12-08T18:13:23.089Z,64.36
2018-12-08T18:15:51.319Z,63.81
2018-12-08T18:18:19.577Z,63.25
2018-12-08T18:20:47.963Z,63.17
2018-12-08T18:23:16.272Z,62.77
2018-12-08T18:25:44.652Z,63.56
2018-12-08T18:28:13.000Z,63.19
2018-12-08T18:30:41.310Z,62.54
2018-12-08T18:33:09.490Z,62.74
2018-12-08T18:35:37.804Z,62.65
2018-12-08T18:38:06.060Z,62.70
2018-12-08T18:40:34.322Z,61.94
2018-12-08T18:43:02.555Z,61.83
2018-12-08T18:45:30.874Z,62.13
2018-12-08T18:47:59.122Z,62.31
2018-12-08T18:50:27.439Z,61.73
2018-12-08T18:52:55.681Z,61.81
2018-12-08T18:55:23.970Z,61.54
2018-12-08T18:57:52.183Z,60.58
2018-12-08T19:00:20.523Z,60.02
2018-12-08T19:02:48.927Z,60.34
2018-12-08T19:05:17.182Z,60.75
2018-12-08T19:07:45.414Z,60.28
2018-12-08T19:10:13.704Z,60.09
2018-12-08T19:12:41.962Z,60.16
2018-12-08T19:15:10.292Z,59.70
2018-12-08T19:17:38.526Z,59.63
2018-12-08T19:20:07.023Z,59.57
2018-12-08T19:22:35.259Z,59.35
2018-12-08T19:25:03.599Z,59.14
2018-12-08T19:27:31.897Z,59.17
2018-12-08T19:30:00.252Z,59.58
2018-12-08T19:32:28.507Z,59.42
2018-12-08T19:34:56.741Z,59.23
2018-12-08T19:37:25.008Z,59.14
2018-12-08T19:39:53.227Z,59.16
2018-12-08T19:42:21.518Z,58.79
2018-12-08T19:44:49.784Z,58.33
2018-12-08T19:47:18.086Z,59.48
2018-12-08T19:49:46.307Z,58.92
2018-12-08T19:52:14.760Z,59.28
2018-12-08T19:54:43.017Z,59.47
2018-12-08T19:57:11.367Z,59.42
2018-12-08T19:59:40.127Z,59.25
2018-12-08T20:02:08.528Z,58.37
2018-12-08T20:04:36.900Z,58.98
2018-12-08T20:07:05.188Z,58.90
2018-12-08T20:09:33.446Z,58.50
2018-12-08T20:12:01.681Z,59.22
2018-12-08T20:14:29.988Z,59.33
2018-12-08T20:16:59.014Z,59.07
2018-12-08T20:19:27.218Z,59.02
2018-12-08T20:21:55.468Z,59.37
2018-12-08T20:24:23.690Z,59.12
2018-12-08T20:26:51.942Z,59.05
2018-12-08T20:29:20.152Z,58.60
2018-12-08T20:31:48.457Z,58.64
2018-12-08T20:34:16.731Z,59.11
2018-12-08T20:36:44.987Z,59.48
2018-12-08T20:39:13.190Z,59.28
2018-12-08T20:41:41.469Z,59.46
2018-12-08T20:44:09.707Z,59.47
2018-12-08T20:46:38.128Z,59.85
2018-12-08T20:49:06.547Z,58.77
2018-12-08T20:51:34.787Z,58.89
2018-12-08T20:54:02.996Z,58.92
2018-12-08T20:56:31.272Z,58.33
2018-12-08T20:58:59.472Z,58.30
2018-12-08T21:01:28.346Z,57.85
2018-12-08T21:03:56.626Z,58.62
2018-12-08T21:06:24.930Z,58.66
2018-12-08T21:08:53.190Z,58.58
2018-12-08T21:11:21.522Z,59.02
2018-12-08T21:13:49.767Z,58.89
2018-12-08T21:16:18.087Z,59.00
2018-12-08T21:18:46.365Z,60.10
2018-12-08T21:21:14.678Z,62.39
2018-12-08T21:23:42.951Z,62.31
2018-12-08T21:26:11.312Z,63.84
2018-12-08T21:28:39.652Z,62.06
2018-12-08T21:31:07.901Z,61.75
2018-12-08T21:33:36.190Z,61.56
2018-12-08T21:36:04.407Z,61.67
2018-12-08T21:38:32.730Z,61.33
2018-12-08T21:41:00.980Z,60.99
2018-12-08T21:43:29.391Z,60.73
2018-12-08T21:45:57.755Z,60.38
2018-12-08T21:48:26.125Z,60.50
2018-12-08T21:50:54.479Z,60.42
2018-12-08T21:53:23.152Z,60.95
2018-12-08T21:55:51.434Z,60.26
2018-12-08T21:58:19.883Z,60.24
2018-12-08T22:00:48.203Z,60.38
2018-12-08T22:03:16.451Z,60.14
2018-12-08T22:05:44.865Z,59.75
2018-12-08T22:08:13.137Z,60.09
2018-12-08T22:10:41.519Z,60.22
2018-12-08T22:13:09.787Z,60.88
2018-12-08T22:15:38.146Z,61.37
2018-12-08T22:18:06.364Z,61.13
2018-12-08T22:20:34.990Z,61.11
2018-12-08T22:23:03.246Z,61.90
2018-12-08T22:25:31.612Z,64.04
2018-12-08T22:27:59.839Z,64.42
2018-12-08T22:30:28.139Z,66.32
2018-12-08T22:32:56.411Z,66.92
2018-12-08T22:35:24.654Z,67.04
2018-12-08T22:37:52.976Z,66.54
2018-12-08T22:40:21.224Z,66.36
2018-12-08T22:42:49.519Z,65.55
2018-12-08T22:45:17.732Z,65.59
2018-12-08T22:47:46.085Z,65.28
2018-12-08T22:50:14.421Z,65.04
2018-12-08T22:52:42.701Z,65.07
2018-12-08T22:55:10.913Z,65.17
2018-12-08T22:57:39.497Z,65.88
2018-12-08T23:00:14.512Z,65.92
2018-12-08T23:02:42.790Z,66.54
2018-12-08T23:05:11.050Z,66.82
2018-12-08T23:07:39.290Z,66.78
2018-12-08T23:10:07.541Z,66.78
2018-12-08T23:12:35.749Z,67.13
2018-12-08T23:15:04.005Z,67.15
2018-12-08T23:17:32.261Z,66.84
2018-12-08T23:20:00.514Z,67.00
2018-12-08T23:22:28.770Z,66.71
2018-12-08T23:24:57.089Z,67.16
2018-12-08T23:27:25.290Z,66.79
2018-12-08T23:29:53.588Z,66.30
2018-12-08T23:32:21.922Z,66.10
2018-12-08T23:34:50.150Z,66.56
2018-12-08T23:37:18.462Z,66.29
2018-12-08T23:39:46.758Z,65.82
2018-12-08T23:42:15.006Z,65.34
2018-12-08T23:44:43.254Z,67.03
2018-12-08T23:47:11.551Z,71.21
2018-12-08T23:49:39.747Z,74.91
2018-12-08T23:52:07.987Z,74.83
2018-12-08T23:54:36.255Z,75.34
2018-12-08T23:57:04.550Z,75.46
2018-12-08T23:59:32.773Z,74.35
